sensor_id;sensor_type;location;lat;lon;timestamp;P1;durP1;ratioP1;P2;durP2;ratioP2
38182;SDS011;23991;52.430;10.586;2022-11-23T00:02:17;9.45;;;4.93;;
38182;SDS011;23991;52.430;10.586;2022-11-23T00:04:51;7.70;;;4.57;;
38182;SDS011;23991;52.430;10.586;2022-11-23T00:07:17;8.82;;;4.30;;
38182;SDS011;23991;52.430;10.586;2022-11-23T00:09:43;13.25;;;4.78;;
38182;SDS011;23991;52.430;10.586;2022-11-23T00:12:11;12.25;;;4.85;;
38182;SDS011;23991;52.430;10.586;2022-11-23T00:14:40;9.48;;;4.53;;
38182;SDS011;23991;52.430;10.586;2022-11-23T00:17:11;8.80;;;4.38;;
38182;SDS011;23991;52.430;10.586;2022-11-23T00:19:37;9.63;;;4.50;;
38182;SDS011;23991;52.430;10.586;2022-11-23T00:22:12;14.70;;;5.78;;
38182;SDS011;23991;52.430;10.586;2022-11-23T00:24:47;8.55;;;4.10;;
38182;SDS011;23991;52.430;10.586;2022-11-23T00:27:13;10.90;;;4.13;;
38182;SDS011;23991;52.430;10.586;2022-11-23T00:29:47;8.00;;;3.72;;
38182;SDS011;23991;52.430;10.586;2022-11-23T00:32:14;11.73;;;4.93;;
38182;SDS011;23991;52.430;10.586;2022-11-23T00:34:40;14.95;;;4.30;;
38182;SDS011;23991;52.430;10.586;2022-11-23T00:37:06;11.10;;;4.22;;
38182;SDS011;23991;52.430;10.586;2022-11-23T00:39:37;8.90;;;3.78;;
38182;SDS011;23991;52.430;10.586;2022-11-23T00:42:06;10.80;;;4.05;;
38182;SDS011;23991;52.430;10.586;2022-11-23T00:44:36;8.38;;;4.00;;
38182;SDS011;23991;52.430;10.586;2022-11-23T00:47:07;10.70;;;3.60;;
38182;SDS011;23991;52.430;10.586;2022-11-23T00:49:41;10.55;;;3.92;;
38182;SDS011;23991;52.430;10.586;2022-11-23T00:52:10;8.52;;;3.20;;
38182;SDS011;23991;52.430;10.586;2022-11-23T00:54:38;10.98;;;3.75;;
38182;SDS011;23991;52.430;10.586;2022-11-23T00:57:04;11.60;;;4.38;;
38182;SDS011;23991;52.430;10.586;2022-11-23T00:59:30;10.75;;;4.03;;
38182;SDS011;23991;52.430;10.586;2022-11-23T01:01:55;7.53;;;3.72;;
38182;SDS011;23991;52.430;10.586;2022-11-23T01:04:21;8.13;;;4.00;;
38182;SDS011;23991;52.430;10.586;2022-11-23T01:06:46;13.30;;;3.92;;
38182;SDS011;23991;52.430;10.586;2022-11-23T01:09:13;10.23;;;3.80;;
38182;SDS011;23991;52.430;10.586;2022-11-23T01:11:41;10.20;;;3.90;;
38182;SDS011;23991;52.430;10.586;2022-11-23T01:14:08;9.00;;;4.10;;
38182;SDS011;23991;52.430;10.586;2022-11-23T01:16:37;7.70;;;3.55;;
38182;SDS011;23991;52.430;10.586;2022-11-23T01:19:09;13.35;;;4.30;;
38182;SDS011;23991;52.430;10.586;2022-11-23T01:21:36;12.55;;;3.88;;
38182;SDS011;23991;52.430;10.586;2022-11-23T01:24:03;10.68;;;3.63;;
38182;SDS011;23991;52.430;10.586;2022-11-23T01:26:30;9.25;;;3.47;;
38182;SDS011;23991;52.430;10.586;2022-11-23T01:28:56;9.23;;;3.55;;
38182;SDS011;23991;52.430;10.586;2022-11-23T01:31:22;8.80;;;3.60;;
38182;SDS011;23991;52.430;10.586;2022-11-23T01:33:55;10.00;;;4.55;;
38182;SDS011;23991;52.430;10.586;2022-11-23T01:36:27;9.80;;;3.60;;
38182;SDS011;23991;52.430;10.586;2022-11-23T01:38:55;8.18;;;3.42;;
38182;SDS011;23991;52.430;10.586;2022-11-23T01:41:22;8.95;;;3.75;;
38182;SDS011;23991;52.430;10.586;2022-11-23T01:43:49;6.65;;;3.45;;
38182;SDS011;23991;52.430;10.586;2022-11-23T01:46:15;9.23;;;4.05;;
38182;SDS011;23991;52.430;10.586;2022-11-23T01:51:25;8.60;;;4.15;;
38182;SDS011;23991;52.430;10.586;2022-11-23T01:53:59;6.50;;;3.45;;
38182;SDS011;23991;52.430;10.586;2022-11-23T01:56:32;13.88;;;3.58;;
38182;SDS011;23991;52.430;10.586;2022-11-23T01:59:01;8.80;;;3.70;;
38182;SDS011;23991;52.430;10.586;2022-11-23T02:01:31;8.80;;;3.75;;
38182;SDS011;23991;52.430;10.586;2022-11-23T02:03:59;6.60;;;3.28;;
38182;SDS011;23991;52.430;10.586;2022-11-23T02:06:26;6.53;;;3.53;;
38182;SDS011;23991;52.430;10.586;2022-11-23T02:08:58;7.65;;;3.63;;
38182;SDS011;23991;52.430;10.586;2022-11-23T02:11:30;8.20;;;3.38;;
38182;SDS011;23991;52.430;10.586;2022-11-23T02:14:07;8.98;;;4.03;;
38182;SDS011;23991;52.430;10.586;2022-11-23T02:16:36;9.38;;;3.70;;
38182;SDS011;23991;52.430;10.586;2022-11-23T02:21:34;7.18;;;3.22;;
38182;SDS011;23991;52.430;10.586;2022-11-23T02:26:37;11.02;;;3.92;;
38182;SDS011;23991;52.430;10.586;2022-11-23T02:31:49;8.05;;;3.25;;
38182;SDS011;23991;52.430;10.586;2022-11-23T02:34:16;6.70;;;3.20;;
38182;SDS011;23991;52.430;10.586;2022-11-23T02:36:43;5.95;;;3.22;;
38182;SDS011;23991;52.430;10.586;2022-11-23T02:42:01;6.30;;;3.00;;
38182;SDS011;23991;52.430;10.586;2022-11-23T02:44:36;9.45;;;3.70;;
38182;SDS011;23991;52.430;10.586;2022-11-23T02:47:19;7.95;;;2.80;;
38182;SDS011;23991;52.430;10.586;2022-11-23T02:50:05;5.78;;;2.90;;
38182;SDS011;23991;52.430;10.586;2022-11-23T02:52:35;9.55;;;3.35;;
38182;SDS011;23991;52.430;10.586;2022-11-23T02:55:03;6.03;;;3.15;;
38182;SDS011;23991;52.430;10.586;2022-11-23T02:57:35;6.70;;;3.22;;
38182;SDS011;23991;52.430;10.586;2022-11-23T03:00:00;9.10;;;3.70;;
38182;SDS011;23991;52.430;10.586;2022-11-23T03:02:26;8.45;;;3.22;;
38182;SDS011;23991;52.430;10.586;2022-11-23T03:04:54;8.30;;;3.20;;
38182;SDS011;23991;52.430;10.586;2022-11-23T03:07:20;7.07;;;3.25;;
38182;SDS011;23991;52.430;10.586;2022-11-23T03:09:51;10.60;;;3.30;;
38182;SDS011;23991;52.430;10.586;2022-11-23T03:12:26;10.02;;;4.53;;
38182;SDS011;23991;52.430;10.586;2022-11-23T03:14:53;7.40;;;3.40;;
38182;SDS011;23991;52.430;10.586;2022-11-23T03:17:20;5.80;;;3.08;;
38182;SDS011;23991;52.430;10.586;2022-11-23T03:19:56;6.45;;;3.53;;
38182;SDS011;23991;52.430;10.586;2022-11-23T03:22:25;7.78;;;3.28;;
38182;SDS011;23991;52.430;10.586;2022-11-23T03:24:53;8.98;;;3.85;;
38182;SDS011;23991;52.430;10.586;2022-11-23T03:27:21;7.88;;;3.15;;
38182;SDS011;23991;52.430;10.586;2022-11-23T03:29:47;7.93;;;4.68;;
38182;SDS011;23991;52.430;10.586;2022-11-23T03:32:12;5.10;;;3.03;;
38182;SDS011;23991;52.430;10.586;2022-11-23T03:34:38;6.88;;;2.55;;
38182;SDS011;23991;52.430;10.586;2022-11-23T03:37:15;8.70;;;3.17;;
38182;SDS011;23991;52.430;10.586;2022-11-23T03:39:41;7.47;;;3.05;;
38182;SDS011;23991;52.430;10.586;2022-11-23T03:42:15;8.82;;;3.20;;
38182;SDS011;23991;52.430;10.586;2022-11-23T03:44:44;6.03;;;3.10;;
38182;SDS011;23991;52.430;10.586;2022-11-23T03:47:09;12.05;;;3.90;;
38182;SDS011;23991;52.430;10.586;2022-11-23T03:49:36;6.70;;;3.40;;
38182;SDS011;23991;52.430;10.586;2022-11-23T03:52:08;9.32;;;3.65;;
38182;SDS011;23991;52.430;10.586;2022-11-23T03:54:35;9.20;;;3.33;;
38182;SDS011;23991;52.430;10.586;2022-11-23T03:57:06;8.68;;;3.13;;
38182;SDS011;23991;52.430;10.586;2022-11-23T03:59:55;7.50;;;3.97;;
38182;SDS011;23991;52.430;10.586;2022-11-23T04:02:30;7.28;;;2.95;;
38182;SDS011;23991;52.430;10.586;2022-11-23T04:04:55;6.47;;;3.20;;
38182;SDS011;23991;52.430;10.586;2022-11-23T04:07:24;10.65;;;3.60;;
38182;SDS011;23991;52.430;10.586;2022-11-23T04:09:49;7.30;;;3.50;;
38182;SDS011;23991;52.430;10.586;2022-11-23T04:12:18;7.38;;;3.05;;
38182;SDS011;23991;52.430;10.586;2022-11-23T04:14:44;9.18;;;3.35;;
38182;SDS011;23991;52.430;10.586;2022-11-23T04:17:10;7.38;;;3.13;;
38182;SDS011;23991;52.430;10.586;2022-11-23T04:19:35;7.10;;;3.22;;
38182;SDS011;23991;52.430;10.586;2022-11-23T04:22:01;6.97;;;3.05;;
38182;SDS011;23991;52.430;10.586;2022-11-23T04:24:26;13.25;;;3.33;;
38182;SDS011;23991;52.430;10.586;2022-11-23T04:26:52;11.70;;;4.47;;
38182;SDS011;23991;52.430;10.586;2022-11-23T04:29:23;7.13;;;3.00;;
38182;SDS011;23991;52.430;10.586;2022-11-23T04:31:52;8.38;;;3.90;;
38182;SDS011;23991;52.430;10.586;2022-11-23T04:34:18;10.55;;;3.90;;
38182;SDS011;23991;52.430;10.586;2022-11-23T04:36:45;9.80;;;4.00;;
38182;SDS011;23991;52.430;10.586;2022-11-23T04:39:11;8.30;;;3.50;;
38182;SDS011;23991;52.430;10.586;2022-11-23T04:41:37;10.13;;;3.80;;
38182;SDS011;23991;52.430;10.586;2022-11-23T04:44:03;11.98;;;4.50;;
38182;SDS011;23991;52.430;10.586;2022-11-23T04:46:30;8.52;;;3.28;;
38182;SDS011;23991;52.430;10.586;2022-11-23T04:48:55;11.75;;;3.92;;
38182;SDS011;23991;52.430;10.586;2022-11-23T04:51:21;14.93;;;4.00;;
38182;SDS011;23991;52.430;10.586;2022-11-23T04:53:47;7.95;;;4.10;;
38182;SDS011;23991;52.430;10.586;2022-11-23T04:56:13;9.73;;;4.05;;
38182;SDS011;23991;52.430;10.586;2022-11-23T04:58:38;10.98;;;3.63;;
38182;SDS011;23991;52.430;10.586;2022-11-23T05:01:07;8.13;;;3.17;;
38182;SDS011;23991;52.430;10.586;2022-11-23T05:03:33;9.82;;;4.18;;
38182;SDS011;23991;52.430;10.586;2022-11-23T05:06:02;8.43;;;3.47;;
38182;SDS011;23991;52.430;10.586;2022-11-23T05:08:28;7.35;;;3.40;;
38182;SDS011;23991;52.430;10.586;2022-11-23T05:11:01;6.43;;;3.63;;
38182;SDS011;23991;52.430;10.586;2022-11-23T05:13:26;8.82;;;3.47;;
38182;SDS011;23991;52.430;10.586;2022-11-23T05:15:53;4.47;;;2.70;;
38182;SDS011;23991;52.430;10.586;2022-11-23T05:18:19;6.75;;;3.55;;
38182;SDS011;23991;52.430;10.586;2022-11-23T05:20:45;7.55;;;3.22;;
38182;SDS011;23991;52.430;10.586;2022-11-23T05:23:11;9.63;;;3.50;;
38182;SDS011;23991;52.430;10.586;2022-11-23T05:25:37;7.60;;;3.22;;
38182;SDS011;23991;52.430;10.586;2022-11-23T05:28:02;8.05;;;3.50;;
38182;SDS011;23991;52.430;10.586;2022-11-23T05:30:28;6.78;;;4.00;;
38182;SDS011;23991;52.430;10.586;2022-11-23T05:32:58;9.50;;;3.92;;
38182;SDS011;23991;52.430;10.586;2022-11-23T05:35:25;6.18;;;2.67;;
38182;SDS011;23991;52.430;10.586;2022-11-23T05:37:53;8.05;;;2.95;;
38182;SDS011;23991;52.430;10.586;2022-11-23T05:40:18;10.90;;;3.25;;
38182;SDS011;23991;52.430;10.586;2022-11-23T05:42:44;9.25;;;3.75;;
38182;SDS011;23991;52.430;10.586;2022-11-23T05:45:09;6.07;;;2.58;;
38182;SDS011;23991;52.430;10.586;2022-11-23T05:47:35;6.45;;;3.05;;
38182;SDS011;23991;52.430;10.586;2022-11-23T05:50:00;9.75;;;3.63;;
38182;SDS011;23991;52.430;10.586;2022-11-23T05:52:28;8.68;;;3.65;;
38182;SDS011;23991;52.430;10.586;2022-11-23T05:54:54;5.68;;;2.95;;
38182;SDS011;23991;52.430;10.586;2022-11-23T05:57:20;8.13;;;2.90;;
38182;SDS011;23991;52.430;10.586;2022-11-23T05:59:46;8.68;;;3.40;;
38182;SDS011;23991;52.430;10.586;2022-11-23T06:02:13;9.35;;;3.17;;
38182;SDS011;23991;52.430;10.586;2022-11-23T06:04:39;7.57;;;2.97;;
38182;SDS011;23991;52.430;10.586;2022-11-23T06:07:06;12.45;;;4.00;;
38182;SDS011;23991;52.430;10.586;2022-11-23T06:09:33;8.32;;;3.92;;
38182;SDS011;23991;52.430;10.586;2022-11-23T06:12:00;6.57;;;3.28;;
38182;SDS011;23991;52.430;10.586;2022-11-23T06:14:25;7.82;;;3.20;;
38182;SDS011;23991;52.430;10.586;2022-11-23T06:16:51;10.52;;;3.40;;
38182;SDS011;23991;52.430;10.586;2022-11-23T06:19:16;7.20;;;3.67;;
38182;SDS011;23991;52.430;10.586;2022-11-23T06:21:42;9.18;;;3.38;;
38182;SDS011;23991;52.430;10.586;2022-11-23T06:24:07;6.47;;;3.08;;
38182;SDS011;23991;52.430;10.586;2022-11-23T06:26:34;7.75;;;3.55;;
38182;SDS011;23991;52.430;10.586;2022-11-23T06:29:00;11.95;;;3.90;;
38182;SDS011;23991;52.430;10.586;2022-11-23T06:31:26;10.88;;;4.03;;
38182;SDS011;23991;52.430;10.586;2022-11-23T06:33:51;16.05;;;5.90;;
38182;SDS011;23991;52.430;10.586;2022-11-23T06:36:17;9.30;;;5.45;;
38182;SDS011;23991;52.430;10.586;2022-11-23T06:38:42;9.93;;;4.50;;
38182;SDS011;23991;52.430;10.586;2022-11-23T06:41:08;8.45;;;3.90;;
38182;SDS011;23991;52.430;10.586;2022-11-23T06:43:34;8.68;;;4.07;;
38182;SDS011;23991;52.430;10.586;2022-11-23T06:46:01;8.52;;;3.75;;
38182;SDS011;23991;52.430;10.586;2022-11-23T06:48:29;8.13;;;3.90;;
38182;SDS011;23991;52.430;10.586;2022-11-23T06:50:57;15.77;;;7.00;;
38182;SDS011;23991;52.430;10.586;2022-11-23T06:53:24;13.93;;;7.68;;
38182;SDS011;23991;52.430;10.586;2022-11-23T06:55:56;10.87;;;5.43;;
38182;SDS011;23991;52.430;10.586;2022-11-23T06:58:23;25.40;;;7.88;;
38182;SDS011;23991;52.430;10.586;2022-11-23T07:00:49;15.27;;;6.03;;
38182;SDS011;23991;52.430;10.586;2022-11-23T07:03:18;11.07;;;4.70;;
38182;SDS011;23991;52.430;10.586;2022-11-23T07:05:45;11.77;;;4.13;;
38182;SDS011;23991;52.430;10.586;2022-11-23T07:08:11;9.65;;;4.90;;
38182;SDS011;23991;52.430;10.586;2022-11-23T07:10:36;8.35;;;4.35;;
38182;SDS011;23991;52.430;10.586;2022-11-23T07:13:03;10.38;;;5.63;;
38182;SDS011;23991;52.430;10.586;2022-11-23T07:15:32;10.32;;;3.92;;
38182;SDS011;23991;52.430;10.586;2022-11-23T07:17:59;15.35;;;4.40;;
38182;SDS011;23991;52.430;10.586;2022-11-23T07:20:24;6.60;;;3.30;;
38182;SDS011;23991;52.430;10.586;2022-11-23T07:25:26;10.95;;;3.72;;
38182;SDS011;23991;52.430;10.586;2022-11-23T07:27:54;10.77;;;4.03;;
38182;SDS011;23991;52.430;10.586;2022-11-23T07:30:24;5.90;;;3.50;;
38182;SDS011;23991;52.430;10.586;2022-11-23T07:32:50;9.50;;;3.67;;
38182;SDS011;23991;52.430;10.586;2022-11-23T07:35:17;11.52;;;4.38;;
38182;SDS011;23991;52.430;10.586;2022-11-23T07:37:43;9.90;;;3.83;;
38182;SDS011;23991;52.430;10.586;2022-11-23T07:40:10;8.20;;;4.03;;
38182;SDS011;23991;52.430;10.586;2022-11-23T07:42:35;11.63;;;4.25;;
38182;SDS011;23991;52.430;10.586;2022-11-23T07:45:02;10.48;;;4.03;;
38182;SDS011;23991;52.430;10.586;2022-11-23T07:47:28;12.15;;;5.65;;
38182;SDS011;23991;52.430;10.586;2022-11-23T07:49:54;11.35;;;4.07;;
38182;SDS011;23991;52.430;10.586;2022-11-23T07:52:19;11.40;;;3.65;;
38182;SDS011;23991;52.430;10.586;2022-11-23T07:54:45;11.57;;;4.40;;
38182;SDS011;23991;52.430;10.586;2022-11-23T07:57:11;7.15;;;3.75;;
38182;SDS011;23991;52.430;10.586;2022-11-23T07:59:36;8.35;;;3.88;;
38182;SDS011;23991;52.430;10.586;2022-11-23T08:02:02;13.18;;;3.97;;
38182;SDS011;23991;52.430;10.586;2022-11-23T08:04:27;9.70;;;3.70;;
38182;SDS011;23991;52.430;10.586;2022-11-23T08:06:54;7.35;;;3.55;;
38182;SDS011;23991;52.430;10.586;2022-11-23T08:09:20;7.05;;;3.55;;
38182;SDS011;23991;52.430;10.586;2022-11-23T08:11:45;5.60;;;3.53;;
38182;SDS011;23991;52.430;10.586;2022-11-23T08:14:11;10.82;;;3.85;;
38182;SDS011;23991;52.430;10.586;2022-11-23T08:16:36;10.05;;;3.85;;
38182;SDS011;23991;52.430;10.586;2022-11-23T08:19:02;11.75;;;3.88;;
38182;SDS011;23991;52.430;10.586;2022-11-23T08:21:28;8.43;;;3.60;;
38182;SDS011;23991;52.430;10.586;2022-11-23T08:23:53;11.57;;;3.50;;
38182;SDS011;23991;52.430;10.586;2022-11-23T08:26:19;10.35;;;3.22;;
38182;SDS011;23991;52.430;10.586;2022-11-23T08:28:45;6.65;;;3.28;;
38182;SDS011;23991;52.430;10.586;2022-11-23T08:31:10;7.50;;;3.33;;
38182;SDS011;23991;52.430;10.586;2022-11-23T08:33:37;10.40;;;4.35;;
38182;SDS011;23991;52.430;10.586;2022-11-23T08:36:03;11.45;;;3.70;;
38182;SDS011;23991;52.430;10.586;2022-11-23T08:38:30;8.45;;;3.38;;
38182;SDS011;23991;52.430;10.586;2022-11-23T08:41:00;10.18;;;3.30;;
38182;SDS011;23991;52.430;10.586;2022-11-23T08:45:58;6.82;;;2.90;;
38182;SDS011;23991;52.430;10.586;2022-11-23T08:48:24;7.80;;;3.22;;
38182;SDS011;23991;52.430;10.586;2022-11-23T08:50:51;7.30;;;2.55;;
38182;SDS011;23991;52.430;10.586;2022-11-23T08:53:17;7.93;;;3.45;;
38182;SDS011;23991;52.430;10.586;2022-11-23T08:55:43;6.82;;;2.90;;
38182;SDS011;23991;52.430;10.586;2022-11-23T08:58:09;6.45;;;2.88;;
38182;SDS011;23991;52.430;10.586;2022-11-23T09:00:35;6.38;;;2.40;;
38182;SDS011;23991;52.430;10.586;2022-11-23T09:03:01;8.02;;;2.55;;
38182;SDS011;23991;52.430;10.586;2022-11-23T09:05:28;10.27;;;3.00;;
38182;SDS011;23991;52.430;10.586;2022-11-23T09:07:54;8.05;;;3.20;;
38182;SDS011;23991;52.430;10.586;2022-11-23T09:10:23;8.50;;;2.42;;
38182;SDS011;23991;52.430;10.586;2022-11-23T09:12:49;7.10;;;2.80;;
38182;SDS011;23991;52.430;10.586;2022-11-23T09:15:16;10.18;;;2.78;;
38182;SDS011;23991;52.430;10.586;2022-11-23T09:17:41;4.93;;;2.35;;
38182;SDS011;23991;52.430;10.586;2022-11-23T09:20:07;4.50;;;2.20;;
38182;SDS011;23991;52.430;10.586;2022-11-23T09:22:34;5.78;;;2.25;;
38182;SDS011;23991;52.430;10.586;2022-11-23T09:25:00;6.40;;;2.47;;
38182;SDS011;23991;52.430;10.586;2022-11-23T09:27:26;6.40;;;2.70;;
38182;SDS011;23991;52.430;10.586;2022-11-23T09:29:51;5.78;;;2.42;;
38182;SDS011;23991;52.430;10.586;2022-11-23T09:32:17;6.63;;;2.80;;
38182;SDS011;23991;52.430;10.586;2022-11-23T09:34:43;4.95;;;2.38;;
38182;SDS011;23991;52.430;10.586;2022-11-23T09:37:09;5.63;;;2.22;;
38182;SDS011;23991;52.430;10.586;2022-11-23T09:39:35;6.70;;;2.53;;
38182;SDS011;23991;52.430;10.586;2022-11-23T09:42:23;9.55;;;2.63;;
38182;SDS011;23991;52.430;10.586;2022-11-23T09:45:15;7.18;;;2.28;;
38182;SDS011;23991;52.430;10.586;2022-11-23T09:48:14;6.50;;;2.75;;
38182;SDS011;23991;52.430;10.586;2022-11-23T09:51:15;6.47;;;2.40;;
38182;SDS011;23991;52.430;10.586;2022-11-23T09:53:52;8.80;;;2.60;;
38182;SDS011;23991;52.430;10.586;2022-11-23T09:56:25;9.23;;;2.92;;
38182;SDS011;23991;52.430;10.586;2022-11-23T09:58:54;10.18;;;2.92;;
38182;SDS011;23991;52.430;10.586;2022-11-23T10:01:22;10.73;;;2.45;;
38182;SDS011;23991;52.430;10.586;2022-11-23T10:03:48;6.30;;;2.20;;
38182;SDS011;23991;52.430;10.586;2022-11-23T10:06:21;5.38;;;2.08;;
38182;SDS011;23991;52.430;10.586;2022-11-23T10:22:56;9.35;;;2.25;;
38182;SDS011;23991;52.430;10.586;2022-11-23T10:25:24;5.90;;;2.25;;
38182;SDS011;23991;52.430;10.586;2022-11-23T10:28:01;11.25;;;2.25;;
38182;SDS011;23991;52.430;10.586;2022-11-23T10:30:36;6.25;;;2.40;;
38182;SDS011;23991;52.430;10.586;2022-11-23T10:35:41;7.47;;;2.42;;
38182;SDS011;23991;52.430;10.586;2022-11-23T10:38:11;6.80;;;2.20;;
38182;SDS011;23991;52.430;10.586;2022-11-23T10:40:40;6.18;;;1.83;;
38182;SDS011;23991;52.430;10.586;2022-11-23T10:43:15;5.95;;;2.78;;
38182;SDS011;23991;52.430;10.586;2022-11-23T10:45:46;5.45;;;1.77;;
38182;SDS011;23991;52.430;10.586;2022-11-23T10:48:12;5.22;;;1.90;;
38182;SDS011;23991;52.430;10.586;2022-11-23T10:54:03;3.72;;;1.55;;
38182;SDS011;23991;52.430;10.586;2022-11-23T10:56:30;5.85;;;1.85;;
38182;SDS011;23991;52.430;10.586;2022-11-23T10:58:57;5.10;;;1.63;;
38182;SDS011;23991;52.430;10.586;2022-11-23T11:01:24;4.95;;;1.48;;
38182;SDS011;23991;52.430;10.586;2022-11-23T11:03:53;9.38;;;2.25;;
38182;SDS011;23991;52.430;10.586;2022-11-23T11:06:23;9.52;;;2.20;;
38182;SDS011;23991;52.430;10.586;2022-11-23T11:08:55;4.90;;;2.10;;
38182;SDS011;23991;52.430;10.586;2022-11-23T11:11:32;6.82;;;2.00;;
38182;SDS011;23991;52.430;10.586;2022-11-23T11:14:16;6.82;;;1.80;;
38182;SDS011;23991;52.430;10.586;2022-11-23T11:17:01;6.00;;;1.77;;
38182;SDS011;23991;52.430;10.586;2022-11-23T11:21:53;3.90;;;1.70;;
38182;SDS011;23991;52.430;10.586;2022-11-23T11:27:01;7.22;;;2.40;;
38182;SDS011;23991;52.430;10.586;2022-11-23T11:40:20;5.53;;;2.03;;
38182;SDS011;23991;52.430;10.586;2022-11-23T11:42:54;10.65;;;2.35;;
38182;SDS011;23991;52.430;10.586;2022-11-23T11:45:52;4.97;;;1.80;;
38182;SDS011;23991;52.430;10.586;2022-11-23T11:48:26;5.35;;;1.67;;
38182;SDS011;23991;52.430;10.586;2022-11-23T11:50:59;5.35;;;1.83;;
38182;SDS011;23991;52.430;10.586;2022-11-23T11:53:32;3.97;;;1.67;;
38182;SDS011;23991;52.430;10.586;2022-11-23T11:56:17;3.33;;;1.60;;
38182;SDS011;23991;52.430;10.586;2022-11-23T11:58:54;4.60;;;1.50;;
38182;SDS011;23991;52.430;10.586;2022-11-23T12:01:41;3.35;;;1.70;;
38182;SDS011;23991;52.430;10.586;2022-11-23T12:04:26;5.47;;;2.00;;
38182;SDS011;23991;52.430;10.586;2022-11-23T12:07:11;5.88;;;2.70;;
38182;SDS011;23991;52.430;10.586;2022-11-23T12:09:51;4.75;;;1.65;;
38182;SDS011;23991;52.430;10.586;2022-11-23T12:12:24;5.30;;;1.50;;
38182;SDS011;23991;52.430;10.586;2022-11-23T12:14:50;4.55;;;1.92;;
38182;SDS011;23991;52.430;10.586;2022-11-23T12:26:01;4.03;;;1.80;;
38182;SDS011;23991;52.430;10.586;2022-11-23T12:31:49;6.55;;;1.75;;
38182;SDS011;23991;52.430;10.586;2022-11-23T12:39:56;4.05;;;1.80;;
38182;SDS011;23991;52.430;10.586;2022-11-23T12:54:10;3.55;;;1.67;;
38182;SDS011;23991;52.430;10.586;2022-11-23T13:00:04;4.13;;;1.38;;
38182;SDS011;23991;52.430;10.586;2022-11-23T13:08:20;6.70;;;1.75;;
38182;SDS011;23991;52.430;10.586;2022-11-23T13:22:24;4.57;;;1.55;;
38182;SDS011;23991;52.430;10.586;2022-11-23T13:24:59;4.65;;;1.75;;
38182;SDS011;23991;52.430;10.586;2022-11-23T13:40:41;7.30;;;2.03;;
38182;SDS011;23991;52.430;10.586;2022-11-23T13:46:10;4.75;;;1.55;;
38182;SDS011;23991;52.430;10.586;2022-11-23T13:48:46;3.22;;;1.50;;
38182;SDS011;23991;52.430;10.586;2022-11-23T13:51:26;5.15;;;1.85;;
38182;SDS011;23991;52.430;10.586;2022-11-23T13:54:01;5.13;;;1.52;;
38182;SDS011;23991;52.430;10.586;2022-11-23T13:56:33;7.22;;;2.42;;
38182;SDS011;23991;52.430;10.586;2022-11-23T14:01:58;3.70;;;1.95;;
38182;SDS011;23991;52.430;10.586;2022-11-23T14:04:31;5.68;;;2.30;;
38182;SDS011;23991;52.430;10.586;2022-11-23T14:07:11;7.00;;;2.08;;
38182;SDS011;23991;52.430;10.586;2022-11-23T14:10:02;8.75;;;2.00;;
38182;SDS011;23991;52.430;10.586;2022-11-23T14:15:21;6.85;;;1.55;;
38182;SDS011;23991;52.430;10.586;2022-11-23T14:43:26;4.35;;;1.65;;
38182;SDS011;23991;52.430;10.586;2022-11-23T14:45:53;10.68;;;2.38;;
38182;SDS011;23991;52.430;10.586;2022-11-23T14:48:27;4.90;;;1.50;;
38182;SDS011;23991;52.430;10.586;2022-11-23T14:50:55;8.13;;;1.88;;
38182;SDS011;23991;52.430;10.586;2022-11-23T14:53:23;5.45;;;1.60;;
38182;SDS011;23991;52.430;10.586;2022-11-23T14:55:54;5.53;;;1.60;;
38182;SDS011;23991;52.430;10.586;2022-11-23T14:58:21;8.30;;;1.88;;
38182;SDS011;23991;52.430;10.586;2022-11-23T15:00:49;7.35;;;2.00;;
38182;SDS011;23991;52.430;10.586;2022-11-23T15:03:18;7.22;;;2.28;;
38182;SDS011;23991;52.430;10.586;2022-11-23T15:05:46;7.20;;;2.55;;
38182;SDS011;23991;52.430;10.586;2022-11-23T15:08:22;4.40;;;2.40;;
38182;SDS011;23991;52.430;10.586;2022-11-23T15:16:12;7.45;;;2.00;;
38182;SDS011;23991;52.430;10.586;2022-11-23T15:18:39;6.35;;;1.92;;
38182;SDS011;23991;52.430;10.586;2022-11-23T15:23:43;4.15;;;1.70;;
38182;SDS011;23991;52.430;10.586;2022-11-23T15:28:44;5.68;;;2.05;;
38182;SDS011;23991;52.430;10.586;2022-11-23T15:33:54;8.45;;;2.72;;
38182;SDS011;23991;52.430;10.586;2022-11-23T15:36:28;5.25;;;2.05;;
38182;SDS011;23991;52.430;10.586;2022-11-23T15:38:57;6.47;;;2.58;;
38182;SDS011;23991;52.430;10.586;2022-11-23T15:41:24;7.18;;;2.90;;
38182;SDS011;23991;52.430;10.586;2022-11-23T15:43:59;4.82;;;1.95;;
38182;SDS011;23991;52.430;10.586;2022-11-23T15:46:26;6.85;;;2.13;;
38182;SDS011;23991;52.430;10.586;2022-11-23T15:48:54;5.78;;;1.95;;
38182;SDS011;23991;52.430;10.586;2022-11-23T15:51:25;4.55;;;2.13;;
38182;SDS011;23991;52.430;10.586;2022-11-23T15:53:53;6.53;;;2.22;;
38182;SDS011;23991;52.430;10.586;2022-11-23T15:58:50;7.47;;;2.50;;
38182;SDS011;23991;52.430;10.586;2022-11-23T16:01:17;7.30;;;2.50;;
38182;SDS011;23991;52.430;10.586;2022-11-23T16:03:47;5.85;;;2.10;;
38182;SDS011;23991;52.430;10.586;2022-11-23T16:06:17;4.38;;;2.38;;
38182;SDS011;23991;52.430;10.586;2022-11-23T16:08:42;5.45;;;2.53;;
38182;SDS011;23991;52.430;10.586;2022-11-23T16:11:28;7.65;;;3.58;;
38182;SDS011;23991;52.430;10.586;2022-11-23T16:16:34;8.55;;;3.38;;
38182;SDS011;23991;52.430;10.586;2022-11-23T16:19:18;10.90;;;3.47;;
38182;SDS011;23991;52.430;10.586;2022-11-23T16:22:03;5.63;;;3.00;;
38182;SDS011;23991;52.430;10.586;2022-11-23T16:24:31;5.45;;;2.45;;
38182;SDS011;23991;52.430;10.586;2022-11-23T16:26:59;5.30;;;2.67;;
38182;SDS011;23991;52.430;10.586;2022-11-23T16:29:26;7.18;;;2.78;;
38182;SDS011;23991;52.430;10.586;2022-11-23T16:32:00;4.55;;;2.22;;
38182;SDS011;23991;52.430;10.586;2022-11-23T16:34:27;4.15;;;2.13;;
38182;SDS011;23991;52.430;10.586;2022-11-23T16:36:53;4.32;;;1.90;;
38182;SDS011;23991;52.430;10.586;2022-11-23T16:39:20;7.25;;;2.65;;
38182;SDS011;23991;52.430;10.586;2022-11-23T16:41:47;7.90;;;3.42;;
38182;SDS011;23991;52.430;10.586;2022-11-23T16:44:12;5.70;;;2.63;;
38182;SDS011;23991;52.430;10.586;2022-11-23T16:46:38;5.65;;;2.78;;
38182;SDS011;23991;52.430;10.586;2022-11-23T16:49:04;7.00;;;2.50;;
38182;SDS011;23991;52.430;10.586;2022-11-23T16:51:35;5.57;;;2.60;;
38182;SDS011;23991;52.430;10.586;2022-11-23T16:54:00;4.85;;;2.40;;
38182;SDS011;23991;52.430;10.586;2022-11-23T16:56:26;5.85;;;2.58;;
38182;SDS011;23991;52.430;10.586;2022-11-23T16:58:52;10.32;;;3.17;;
38182;SDS011;23991;52.430;10.586;2022-11-23T17:01:19;6.38;;;2.78;;
38182;SDS011;23991;52.430;10.586;2022-11-23T17:03:49;4.57;;;2.45;;
38182;SDS011;23991;52.430;10.586;2022-11-23T17:06:15;4.82;;;2.50;;
38182;SDS011;23991;52.430;10.586;2022-11-23T17:08:42;5.95;;;2.28;;
38182;SDS011;23991;52.430;10.586;2022-11-23T17:11:22;7.90;;;2.25;;
38182;SDS011;23991;52.430;10.586;2022-11-23T17:13:50;7.90;;;2.50;;
38182;SDS011;23991;52.430;10.586;2022-11-23T17:16:19;7.35;;;2.70;;
38182;SDS011;23991;52.430;10.586;2022-11-23T17:18:46;8.27;;;2.65;;
38182;SDS011;23991;52.430;10.586;2022-11-23T17:21:12;6.63;;;2.63;;
38182;SDS011;23991;52.430;10.586;2022-11-23T17:23:38;7.55;;;2.75;;
38182;SDS011;23991;52.430;10.586;2022-11-23T17:28:52;10.10;;;5.22;;
38182;SDS011;23991;52.430;10.586;2022-11-23T17:31:18;21.20;;;16.42;;
38182;SDS011;23991;52.430;10.586;2022-11-23T17:33:44;14.50;;;10.13;;
38182;SDS011;23991;52.430;10.586;2022-11-23T17:36:09;10.60;;;5.95;;